sensor_id;sensor_type;location;lat;lon;timestamp;pressure;altitude;pressure_sealevel;temperature;humidity
39275;BME280;24980;48.874;2.332;2022-07-29T00:01:25;101090.19;;;27.80;35.18
39275;BME280;24980;48.874;2.332;2022-07-29T00:03:55;101089.46;;;27.81;35.18
39275;BME280;24980;48.874;2.332;2022-07-29T00:06:25;101086.31;;;27.81;35.17
39275;BME280;24980;48.874;2.332;2022-07-29T00:08:55;101086.83;;;27.81;35.17
39275;BME280;24980;48.874;2.332;2022-07-29T00:11:25;101084.17;;;27.81;35.17
39275;BME280;24980;48.874;2.332;2022-07-29T00:13:56;101078.98;;;27.81;35.16
39275;BME280;24980;48.874;2.332;2022-07-29T00:16:26;101074.05;;;27.81;35.15
39275;BME280;24980;48.874;2.332;2022-07-29T00:18:56;101069.33;;;27.80;35.16
39275;BME280;24980;48.874;2.332;2022-07-29T00:21:26;101066.69;;;27.80;35.14
39275;BME280;24980;48.874;2.332;2022-07-29T00:23:56;101071.39;;;27.79;35.15
39275;BME280;24980;48.874;2.332;2022-07-29T00:26:26;101064.61;;;27.78;35.16
39275;BME280;24980;48.874;2.332;2022-07-29T00:28:57;101067.65;;;27.77;35.16
39275;BME280;24980;48.874;2.332;2022-07-29T00:31:27;101066.41;;;27.75;35.15
39275;BME280;24980;48.874;2.332;2022-07-29T00:33:57;101061.38;;;27.73;35.14
39275;BME280;24980;48.874;2.332;2022-07-29T00:36:27;101060.56;;;27.71;35.13
39275;BME280;24980;48.874;2.332;2022-07-29T00:38:57;101056.45;;;27.70;35.14
39275;BME280;24980;48.874;2.332;2022-07-29T00:41:27;101050.27;;;27.69;35.14
39275;BME280;24980;48.874;2.332;2022-07-29T00:43:57;101052.92;;;27.68;35.13
39275;BME280;24980;48.874;2.332;2022-07-29T00:46:28;101053.17;;;27.67;35.10
39275;BME280;24980;48.874;2.332;2022-07-29T00:48:58;101053.69;;;27.66;35.10
39275;BME280;24980;48.874;2.332;2022-07-29T00:51:29;101056.02;;;27.65;35.10
39275;BME280;24980;48.874;2.332;2022-07-29T00:53:59;101057.01;;;27.64;35.10
39275;BME280;24980;48.874;2.332;2022-07-29T00:56:34;101055.75;;;27.63;35.08
39275;BME280;24980;48.874;2.332;2022-07-29T00:59:00;101053.64;;;27.63;35.06
39275;BME280;24980;48.874;2.332;2022-07-29T01:01:30;101050.84;;;27.62;35.04
39275;BME280;24980;48.874;2.332;2022-07-29T01:04:00;101051.95;;;27.60;35.00
39275;BME280;24980;48.874;2.332;2022-07-29T01:06:30;101051.45;;;27.59;34.99
39275;BME280;24980;48.874;2.332;2022-07-29T01:09:01;101049.86;;;27.58;34.99
39275;BME280;24980;48.874;2.332;2022-07-29T01:11:31;101051.69;;;27.58;34.97
39275;BME280;24980;48.874;2.332;2022-07-29T01:14:04;101051.79;;;27.57;34.98
39275;BME280;24980;48.874;2.332;2022-07-29T01:16:36;101051.72;;;27.56;34.97
39275;BME280;24980;48.874;2.332;2022-07-29T01:19:11;101052.26;;;27.55;34.96
39275;BME280;24980;48.874;2.332;2022-07-29T01:21:44;101054.69;;;27.55;34.95
39275;BME280;24980;48.874;2.332;2022-07-29T01:26:46;101055.14;;;27.54;34.91
39275;BME280;24980;48.874;2.332;2022-07-29T01:29:14;101058.99;;;27.53;34.89
39275;BME280;24980;48.874;2.332;2022-07-29T01:31:51;101054.25;;;27.52;34.88
39275;BME280;24980;48.874;2.332;2022-07-29T01:34:08;101056.09;;;27.51;34.88
39275;BME280;24980;48.874;2.332;2022-07-29T01:36:54;101058.24;;;27.50;34.87
39275;BME280;24980;48.874;2.332;2022-07-29T01:39:14;101059.53;;;27.49;34.83
39275;BME280;24980;48.874;2.332;2022-07-29T01:42:00;101056.70;;;27.48;34.81
39275;BME280;24980;48.874;2.332;2022-07-29T01:44:20;101054.18;;;27.46;34.79
39275;BME280;24980;48.874;2.332;2022-07-29T01:46:42;101057.51;;;27.46;34.77
39275;BME280;24980;48.874;2.332;2022-07-29T01:49:19;101059.78;;;27.45;34.76
39275;BME280;24980;48.874;2.332;2022-07-29T01:51:45;101060.14;;;27.44;34.74
39275;BME280;24980;48.874;2.332;2022-07-29T01:56:42;101069.25;;;27.42;34.70
39275;BME280;24980;48.874;2.332;2022-07-29T01:59:12;101072.02;;;27.42;34.69
39275;BME280;24980;48.874;2.332;2022-07-29T02:01:42;101070.24;;;27.42;34.68
39275;BME280;24980;48.874;2.332;2022-07-29T02:04:15;101066.55;;;27.40;34.66
39275;BME280;24980;48.874;2.332;2022-07-29T02:06:44;101066.05;;;27.39;34.65
39275;BME280;24980;48.874;2.332;2022-07-29T02:09:14;101063.47;;;27.38;34.64
39275;BME280;24980;48.874;2.332;2022-07-29T02:11:49;101062.72;;;27.37;34.63
39275;BME280;24980;48.874;2.332;2022-07-29T02:14:17;101058.98;;;27.37;34.63
39275;BME280;24980;48.874;2.332;2022-07-29T02:16:47;101061.64;;;27.36;34.63
39275;BME280;24980;48.874;2.332;2022-07-29T02:19:17;101065.81;;;27.36;34.63
39275;BME280;24980;48.874;2.332;2022-07-29T02:21:46;101067.59;;;27.36;34.63
39275;BME280;24980;48.874;2.332;2022-07-29T02:24:18;101072.91;;;27.35;34.63
39275;BME280;24980;48.874;2.332;2022-07-29T02:26:49;101067.66;;;27.34;34.61
39275;BME280;24980;48.874;2.332;2022-07-29T02:29:20;101069.62;;;27.34;34.61
39275;BME280;24980;48.874;2.332;2022-07-29T02:31:49;101070.94;;;27.33;34.62
39275;BME280;24980;48.874;2.332;2022-07-29T02:34:19;101068.47;;;27.33;34.62
39275;BME280;24980;48.874;2.332;2022-07-29T02:36:49;101068.38;;;27.33;34.62
39275;BME280;24980;48.874;2.332;2022-07-29T02:39:19;101068.27;;;27.32;34.62
39275;BME280;24980;48.874;2.332;2022-07-29T02:41:58;101071.00;;;27.31;34.65
39275;BME280;24980;48.874;2.332;2022-07-29T02:44:24;101075.02;;;27.31;34.66
39275;BME280;24980;48.874;2.332;2022-07-29T02:47:27;101074.16;;;27.31;34.67
39275;BME280;24980;48.874;2.332;2022-07-29T02:50:00;101073.91;;;27.30;34.67
39275;BME280;24980;48.874;2.332;2022-07-29T02:51:55;101070.88;;;27.29;34.64
39275;BME280;24980;48.874;2.332;2022-07-29T02:54:33;101069.12;;;27.29;34.64
39275;BME280;24980;48.874;2.332;2022-07-29T02:56:55;101077.48;;;27.29;34.66
39275;BME280;24980;48.874;2.332;2022-07-29T02:59:26;101070.09;;;27.27;34.63
39275;BME280;24980;48.874;2.332;2022-07-29T03:01:55;101073.08;;;27.27;34.63
39275;BME280;24980;48.874;2.332;2022-07-29T03:04:27;101068.92;;;27.27;34.62
39275;BME280;24980;48.874;2.332;2022-07-29T03:06:58;101069.83;;;27.26;34.61
39275;BME280;24980;48.874;2.332;2022-07-29T03:09:27;101075.54;;;27.25;34.61
39275;BME280;24980;48.874;2.332;2022-07-29T03:11:57;101076.75;;;27.24;34.58
39275;BME280;24980;48.874;2.332;2022-07-29T03:14:28;101079.50;;;27.23;34.58
39275;BME280;24980;48.874;2.332;2022-07-29T03:16:59;101081.71;;;27.23;34.59
39275;BME280;24980;48.874;2.332;2022-07-29T03:19:29;101089.42;;;27.22;34.59
39275;BME280;24980;48.874;2.332;2022-07-29T03:21:59;101084.92;;;27.22;34.60
39275;BME280;24980;48.874;2.332;2022-07-29T03:24:31;101081.61;;;27.21;34.63
39275;BME280;24980;48.874;2.332;2022-07-29T03:27:01;101084.58;;;27.22;34.65
39275;BME280;24980;48.874;2.332;2022-07-29T03:29:31;101082.13;;;27.21;34.67
39275;BME280;24980;48.874;2.332;2022-07-29T03:32:02;101085.70;;;27.21;34.67
39275;BME280;24980;48.874;2.332;2022-07-29T03:34:30;101084.61;;;27.20;34.67
39275;BME280;24980;48.874;2.332;2022-07-29T03:37:01;101084.62;;;27.20;34.67
39275;BME280;24980;48.874;2.332;2022-07-29T03:39:34;101085.02;;;27.19;34.67
39275;BME280;24980;48.874;2.332;2022-07-29T03:42:02;101085.53;;;27.19;34.68
39275;BME280;24980;48.874;2.332;2022-07-29T03:44:32;101087.95;;;27.17;34.68
39275;BME280;24980;48.874;2.332;2022-07-29T03:47:05;101087.86;;;27.17;34.67
39275;BME280;24980;48.874;2.332;2022-07-29T03:49:32;101085.20;;;27.16;34.68
39275;BME280;24980;48.874;2.332;2022-07-29T03:52:03;101086.39;;;27.16;34.68
39275;BME280;24980;48.874;2.332;2022-07-29T03:54:33;101082.66;;;27.15;34.68
39275;BME280;24980;48.874;2.332;2022-07-29T03:57:04;101087.36;;;27.14;34.69
39275;BME280;24980;48.874;2.332;2022-07-29T03:59:33;101089.99;;;27.14;34.71
39275;BME280;24980;48.874;2.332;2022-07-29T04:02:05;101090.62;;;27.13;34.73
39275;BME280;24980;48.874;2.332;2022-07-29T04:04:35;101092.06;;;27.13;34.76
39275;BME280;24980;48.874;2.332;2022-07-29T04:07:05;101095.44;;;27.12;34.77
39275;BME280;24980;48.874;2.332;2022-07-29T04:09:35;101095.02;;;27.11;34.80
39275;BME280;24980;48.874;2.332;2022-07-29T04:12:05;101100.91;;;27.11;34.83
39275;BME280;24980;48.874;2.332;2022-07-29T04:14:36;101102.02;;;27.11;34.87
39275;BME280;24980;48.874;2.332;2022-07-29T04:17:06;101104.05;;;27.11;34.90
39275;BME280;24980;48.874;2.332;2022-07-29T04:19:36;101103.38;;;27.11;34.94
39275;BME280;24980;48.874;2.332;2022-07-29T04:22:06;101103.48;;;27.10;34.94
39275;BME280;24980;48.874;2.332;2022-07-29T04:24:36;101103.52;;;27.10;34.94
39275;BME280;24980;48.874;2.332;2022-07-29T04:27:06;101099.45;;;27.09;34.93
39275;BME280;24980;48.874;2.332;2022-07-29T04:29:36;101105.77;;;27.08;34.95
39275;BME280;24980;48.874;2.332;2022-07-29T04:32:06;101106.28;;;27.08;34.97
39275;BME280;24980;48.874;2.332;2022-07-29T04:34:36;101104.92;;;27.08;34.98
39275;BME280;24980;48.874;2.332;2022-07-29T04:37:07;101106.51;;;27.07;34.99
39275;BME280;24980;48.874;2.332;2022-07-29T04:39:37;101105.09;;;27.05;34.99
39275;BME280;24980;48.874;2.332;2022-07-29T04:42:07;101105.52;;;27.05;34.98
39275;BME280;24980;48.874;2.332;2022-07-29T04:44:37;101112.94;;;27.04;34.98
39275;BME280;24980;48.874;2.332;2022-07-29T04:47:08;101118.95;;;27.03;34.97
39275;BME280;24980;48.874;2.332;2022-07-29T04:49:38;101120.41;;;27.03;34.94
39275;BME280;24980;48.874;2.332;2022-07-29T04:52:08;101119.06;;;27.02;34.94
39275;BME280;24980;48.874;2.332;2022-07-29T04:54:38;101120.86;;;27.01;34.93
39275;BME280;24980;48.874;2.332;2022-07-29T04:57:08;101125.38;;;27.01;34.92
39275;BME280;24980;48.874;2.332;2022-07-29T04:59:39;101120.09;;;27.01;34.92
39275;BME280;24980;48.874;2.332;2022-07-29T05:02:09;101125.55;;;27.01;34.90
39275;BME280;24980;48.874;2.332;2022-07-29T05:04:39;101125.70;;;27.01;34.90
39275;BME280;24980;48.874;2.332;2022-07-29T05:07:09;101117.64;;;27.00;34.88
39275;BME280;24980;48.874;2.332;2022-07-29T05:09:40;101124.10;;;27.01;34.90
39275;BME280;24980;48.874;2.332;2022-07-29T05:12:10;101128.02;;;27.00;34.90
39275;BME280;24980;48.874;2.332;2022-07-29T05:14:40;101129.67;;;27.00;34.90
39275;BME280;24980;48.874;2.332;2022-07-29T05:17:10;101131.98;;;27.00;34.89
39275;BME280;24980;48.874;2.332;2022-07-29T05:19:40;101130.53;;;27.00;34.90
39275;BME280;24980;48.874;2.332;2022-07-29T05:22:10;101125.02;;;26.99;34.89
39275;BME280;24980;48.874;2.332;2022-07-29T05:24:40;101120.78;;;26.98;34.91
39275;BME280;24980;48.874;2.332;2022-07-29T05:27:10;101121.21;;;26.98;34.90
39275;BME280;24980;48.874;2.332;2022-07-29T05:29:40;101124.52;;;26.98;34.93
39275;BME280;24980;48.874;2.332;2022-07-29T05:32:10;101125.12;;;26.98;34.96
39275;BME280;24980;48.874;2.332;2022-07-29T05:34:41;101124.55;;;26.97;34.99
39275;BME280;24980;48.874;2.332;2022-07-29T05:37:11;101128.37;;;26.97;35.04
39275;BME280;24980;48.874;2.332;2022-07-29T05:39:41;101129.59;;;26.97;35.07
39275;BME280;24980;48.874;2.332;2022-07-29T05:42:12;101134.28;;;26.97;35.11
39275;BME280;24980;48.874;2.332;2022-07-29T05:44:42;101131.48;;;26.96;35.13
39275;BME280;24980;48.874;2.332;2022-07-29T05:47:12;101131.08;;;26.95;35.14
39275;BME280;24980;48.874;2.332;2022-07-29T05:49:42;101131.87;;;26.94;35.15
39275;BME280;24980;48.874;2.332;2022-07-29T05:52:12;101134.66;;;26.92;35.17
39275;BME280;24980;48.874;2.332;2022-07-29T05:54:42;101143.96;;;26.91;35.18
39275;BME280;24980;48.874;2.332;2022-07-29T05:57:20;101143.67;;;26.90;35.17
39275;BME280;24980;48.874;2.332;2022-07-29T05:59:43;101147.33;;;26.89;35.19
39275;BME280;24980;48.874;2.332;2022-07-29T06:02:13;101146.16;;;26.89;35.22
39275;BME280;24980;48.874;2.332;2022-07-29T06:04:44;101147.95;;;26.89;35.24
39275;BME280;24980;48.874;2.332;2022-07-29T06:07:14;101154.75;;;26.89;35.26
39275;BME280;24980;48.874;2.332;2022-07-29T06:09:44;101153.14;;;26.88;35.27
39275;BME280;24980;48.874;2.332;2022-07-29T06:12:14;101156.77;;;26.87;35.31
39275;BME280;24980;48.874;2.332;2022-07-29T06:14:44;101156.85;;;26.87;35.32
39275;BME280;24980;48.874;2.332;2022-07-29T06:17:15;101159.16;;;26.87;35.33
39275;BME280;24980;48.874;2.332;2022-07-29T06:19:44;101156.44;;;26.86;35.35
39275;BME280;24980;48.874;2.332;2022-07-29T06:22:15;101163.50;;;26.86;35.36
39275;BME280;24980;48.874;2.332;2022-07-29T06:24:45;101165.81;;;26.85;35.37
39275;BME280;24980;48.874;2.332;2022-07-29T06:27:15;101166.42;;;26.85;35.39
39275;BME280;24980;48.874;2.332;2022-07-29T06:29:45;101163.66;;;26.84;35.40
39275;BME280;24980;48.874;2.332;2022-07-29T06:32:15;101160.27;;;26.83;35.43
39275;BME280;24980;48.874;2.332;2022-07-29T06:34:45;101161.47;;;26.83;35.43
39275;BME280;24980;48.874;2.332;2022-07-29T06:37:15;101162.16;;;26.82;35.46
39275;BME280;24980;48.874;2.332;2022-07-29T06:39:45;101165.83;;;26.82;35.48
39275;BME280;24980;48.874;2.332;2022-07-29T06:42:15;101163.16;;;26.81;35.50
39275;BME280;24980;48.874;2.332;2022-07-29T06:44:45;101163.12;;;26.81;35.53
39275;BME280;24980;48.874;2.332;2022-07-29T06:47:16;101170.39;;;26.81;35.56
39275;BME280;24980;48.874;2.332;2022-07-29T06:49:46;101171.73;;;26.80;35.58
39275;BME280;24980;48.874;2.332;2022-07-29T06:52:16;101173.11;;;26.79;35.61
39275;BME280;24980;48.874;2.332;2022-07-29T06:54:46;101174.72;;;26.80;35.64
39275;BME280;24980;48.874;2.332;2022-07-29T06:57:16;101174.04;;;26.80;35.67
39275;BME280;24980;48.874;2.332;2022-07-29T06:59:46;101178.64;;;26.79;35.72
39275;BME280;24980;48.874;2.332;2022-07-29T07:02:17;101179.50;;;26.79;35.75
39275;BME280;24980;48.874;2.332;2022-07-29T07:04:49;101182.31;;;26.78;35.79
39275;BME280;24980;48.874;2.332;2022-07-29T07:07:17;101179.89;;;26.78;35.80
39275;BME280;24980;48.874;2.332;2022-07-29T07:09:48;101183.68;;;26.78;35.80
39275;BME280;24980;48.874;2.332;2022-07-29T07:12:18;101187.38;;;26.78;35.81
39275;BME280;24980;48.874;2.332;2022-07-29T07:14:48;101191.80;;;26.78;35.81
39275;BME280;24980;48.874;2.332;2022-07-29T07:17:19;101190.61;;;26.77;35.84
39275;BME280;24980;48.874;2.332;2022-07-29T07:19:49;101191.80;;;26.77;35.88
39275;BME280;24980;48.874;2.332;2022-07-29T07:22:19;101191.81;;;26.77;35.91
39275;BME280;24980;48.874;2.332;2022-07-29T07:24:49;101189.25;;;26.78;35.93
39275;BME280;24980;48.874;2.332;2022-07-29T07:27:19;101191.82;;;26.76;35.93
39275;BME280;24980;48.874;2.332;2022-07-29T07:29:49;101192.17;;;26.76;35.93
39275;BME280;24980;48.874;2.332;2022-07-29T07:32:19;101193.02;;;26.76;35.93
39275;BME280;24980;48.874;2.332;2022-07-29T07:34:49;101198.97;;;26.76;35.92
39275;BME280;24980;48.874;2.332;2022-07-29T07:37:19;101195.66;;;26.75;35.92
39275;BME280;24980;48.874;2.332;2022-07-29T07:39:49;101199.55;;;26.74;35.93
39275;BME280;24980;48.874;2.332;2022-07-29T07:42:20;101200.91;;;26.73;35.94
39275;BME280;24980;48.874;2.332;2022-07-29T07:44:49;101203.05;;;26.73;35.94
39275;BME280;24980;48.874;2.332;2022-07-29T07:47:20;101198.21;;;26.72;35.95
39275;BME280;24980;48.874;2.332;2022-07-29T07:49:50;101200.16;;;26.73;35.95
39275;BME280;24980;48.874;2.332;2022-07-29T07:52:21;101199.91;;;26.73;35.96
39275;BME280;24980;48.874;2.332;2022-07-29T07:54:51;101199.07;;;26.72;35.97
39275;BME280;24980;48.874;2.332;2022-07-29T07:57:22;101204.08;;;26.73;35.99
39275;BME280;24980;48.874;2.332;2022-07-29T07:59:52;101203.58;;;26.72;36.00
39275;BME280;24980;48.874;2.332;2022-07-29T08:02:22;101199.74;;;26.72;36.02
39275;BME280;24980;48.874;2.332;2022-07-29T08:04:54;101199.59;;;26.71;36.04
39275;BME280;24980;48.874;2.332;2022-07-29T08:07:23;101203.41;;;26.72;36.08
39275;BME280;24980;48.874;2.332;2022-07-29T08:09:53;101204.86;;;26.71;36.10
39275;BME280;24980;48.874;2.332;2022-07-29T08:12:24;101209.27;;;26.72;36.11
39275;BME280;24980;48.874;2.332;2022-07-29T08:14:54;101207.36;;;26.71;36.12
39275;BME280;24980;48.874;2.332;2022-07-29T08:17:24;101207.41;;;26.72;36.13
39275;BME280;24980;48.874;2.332;2022-07-29T08:19:54;101205.24;;;26.71;36.13
39275;BME280;24980;48.874;2.332;2022-07-29T08:22:24;101204.81;;;26.71;36.13
39275;BME280;24980;48.874;2.332;2022-07-29T08:24:54;101204.22;;;26.71;36.14
39275;BME280;24980;48.874;2.332;2022-07-29T08:27:25;101204.06;;;26.70;36.14
39275;BME280;24980;48.874;2.332;2022-07-29T08:29:55;101205.33;;;26.71;36.15
39275;BME280;24980;48.874;2.332;2022-07-29T08:32:28;101204.48;;;26.71;36.15
39275;BME280;24980;48.874;2.332;2022-07-29T08:34:56;101204.83;;;26.70;36.17
39275;BME280;24980;48.874;2.332;2022-07-29T08:37:26;101205.17;;;26.70;36.18
39275;BME280;24980;48.874;2.332;2022-07-29T08:39:56;101200.84;;;26.70;36.18
39275;BME280;24980;48.874;2.332;2022-07-29T08:42:30;101203.11;;;26.71;36.18
39275;BME280;24980;48.874;2.332;2022-07-29T08:44:57;101202.30;;;26.72;36.18
39275;BME280;24980;48.874;2.332;2022-07-29T08:47:27;101206.80;;;26.72;36.17
39275;BME280;24980;48.874;2.332;2022-07-29T08:49:58;101207.22;;;26.73;36.16
39275;BME280;24980;48.874;2.332;2022-07-29T08:52:31;101209.23;;;26.74;36.16
39275;BME280;24980;48.874;2.332;2022-07-29T08:54:58;101211.73;;;26.76;36.15
39275;BME280;24980;48.874;2.332;2022-07-29T08:57:28;101208.25;;;26.75;36.14
39275;BME280;24980;48.874;2.332;2022-07-29T09:00:00;101203.89;;;26.77;36.12
39275;BME280;24980;48.874;2.332;2022-07-29T09:02:33;101203.96;;;26.77;36.11
39275;BME280;24980;48.874;2.332;2022-07-29T09:05:00;101203.40;;;26.78;36.10
39275;BME280;24980;48.874;2.332;2022-07-29T09:07:31;101203.56;;;26.79;36.10
39275;BME280;24980;48.874;2.332;2022-07-29T09:10:01;101204.81;;;26.80;36.08
39275;BME280;24980;48.874;2.332;2022-07-29T09:12:32;101208.88;;;26.81;36.08
39275;BME280;24980;48.874;2.332;2022-07-29T09:15:01;101207.41;;;26.82;36.07
39275;BME280;24980;48.874;2.332;2022-07-29T09:17:41;101205.69;;;26.84;36.06
39275;BME280;24980;48.874;2.332;2022-07-29T09:20:11;101205.03;;;26.85;36.05
39275;BME280;24980;48.874;2.332;2022-07-29T09:22:32;101196.84;;;26.86;36.05
39275;BME280;24980;48.874;2.332;2022-07-29T09:25:02;101201.55;;;26.88;36.04
39275;BME280;24980;48.874;2.332;2022-07-29T09:27:34;101201.00;;;26.90;36.03
39275;BME280;24980;48.874;2.332;2022-07-29T09:30:09;101198.56;;;26.91;36.02
39275;BME280;24980;48.874;2.332;2022-07-29T09:32:57;101202.80;;;26.92;36.00
39275;BME280;24980;48.874;2.332;2022-07-29T09:35:13;101203.89;;;26.92;36.00
39275;BME280;24980;48.874;2.332;2022-07-29T09:37:35;101197.60;;;26.92;36.00
39275;BME280;24980;48.874;2.332;2022-07-29T09:40:12;101203.55;;;26.93;36.00
39275;BME280;24980;48.874;2.332;2022-07-29T09:42:35;101203.45;;;26.93;36.01
39275;BME280;24980;48.874;2.332;2022-07-29T09:45:08;101207.41;;;26.94;36.04
39275;BME280;24980;48.874;2.332;2022-07-29T09:47:45;101205.26;;;26.95;36.05
39275;BME280;24980;48.874;2.332;2022-07-29T09:50:07;101203.09;;;26.97;36.05
39275;BME280;24980;48.874;2.332;2022-07-29T09:52:51;101203.37;;;26.99;36.05
39275;BME280;24980;48.874;2.332;2022-07-29T09:55:10;101200.41;;;27.01;36.05
39275;BME280;24980;48.874;2.332;2022-07-29T09:57:39;101200.89;;;27.03;36.07
39275;BME280;24980;48.874;2.332;2022-07-29T10:00:13;101204.73;;;27.05;36.06
39275;BME280;24980;48.874;2.332;2022-07-29T10:02:43;101201.89;;;27.06;36.05
39275;BME280;24980;48.874;2.332;2022-07-29T10:05:25;101207.27;;;27.08;36.04
39275;BME280;24980;48.874;2.332;2022-07-29T10:07:48;101206.73;;;27.09;36.03
39275;BME280;24980;48.874;2.332;2022-07-29T10:10:35;101201.14;;;27.11;36.03
39275;BME280;24980;48.874;2.332;2022-07-29T10:12:52;101197.70;;;27.13;36.02
39275;BME280;24980;48.874;2.332;2022-07-29T10:15:13;101195.95;;;27.13;36.01
39275;BME280;24980;48.874;2.332;2022-07-29T10:17:44;101198.05;;;27.15;36.00
39275;BME280;24980;48.874;2.332;2022-07-29T10:20:15;101200.88;;;27.16;35.98
39275;BME280;24980;48.874;2.332;2022-07-29T10:22:45;101203.14;;;27.18;35.98
39275;BME280;24980;48.874;2.332;2022-07-29T10:25:16;101200.44;;;27.20;35.96
39275;BME280;24980;48.874;2.332;2022-07-29T10:27:46;101199.30;;;27.22;35.96
39275;BME280;24980;48.874;2.332;2022-07-29T10:30:16;101201.86;;;27.24;35.92
39275;BME280;24980;48.874;2.332;2022-07-29T10:38:03;101199.10;;;27.28;35.89
39275;BME280;24980;48.874;2.332;2022-07-29T10:40:51;101198.51;;;27.31;35.90
39275;BME280;24980;48.874;2.332;2022-07-29T10:42:49;101200.14;;;27.33;35.88
39275;BME280;24980;48.874;2.332;2022-07-29T10:45:18;101194.83;;;27.34;35.86
39275;BME280;24980;48.874;2.332;2022-07-29T10:48:03;101201.98;;;27.37;35.84
39275;BME280;24980;48.874;2.332;2022-07-29T10:50:19;101206.04;;;27.38;35.86
39275;BME280;24980;48.874;2.332;2022-07-29T10:52:54;101199.25;;;27.40;35.85
39275;BME280;24980;48.874;2.332;2022-07-29T10:55:39;101203.47;;;27.41;35.84
39275;BME280;24980;48.874;2.332;2022-07-29T10:58:21;101210.67;;;27.43;35.84
39275;BME280;24980;48.874;2.332;2022-07-29T11:00:29;101205.70;;;27.45;35.83
39275;BME280;24980;48.874;2.332;2022-07-29T11:02:51;101207.19;;;27.46;35.83
39275;BME280;24980;48.874;2.332;2022-07-29T11:05:25;101206.99;;;27.47;35.84
39275;BME280;24980;48.874;2.332;2022-07-29T11:10:24;101201.19;;;27.50;35.83
39275;BME280;24980;48.874;2.332;2022-07-29T11:12:54;101192.59;;;27.52;35.83
39275;BME280;24980;48.874;2.332;2022-07-29T11:15:23;101193.83;;;27.54;35.82
39275;BME280;24980;48.874;2.332;2022-07-29T11:22:55;101187.67;;;27.60;35.81
39275;BME280;24980;48.874;2.332;2022-07-29T11:25:25;101192.38;;;27.62;35.81
39275;BME280;24980;48.874;2.332;2022-07-29T11:28:08;101195.95;;;27.62;35.82
39275;BME280;24980;48.874;2.332;2022-07-29T11:30:49;101202.03;;;27.64;35.81
39275;BME280;24980;48.874;2.332;2022-07-29T11:32:57;101194.83;;;27.65;35.80
39275;BME280;24980;48.874;2.332;2022-07-29T11:35:28;101192.45;;;27.65;35.79
39275;BME280;24980;48.874;2.332;2022-07-29T11:38:23;101192.03;;;27.65;35.77
39275;BME280;24980;48.874;2.332;2022-07-29T11:40:29;101191.67;;;27.63;35.80
39275;BME280;24980;48.874;2.332;2022-07-29T11:43:00;101194.34;;;27.62;35.79
39275;BME280;24980;48.874;2.332;2022-07-29T11:45:44;101192.69;;;27.61;35.82
39275;BME280;24980;48.874;2.332;2022-07-29T11:48:01;101187.44;;;27.62;35.83
39275;BME280;24980;48.874;2.332;2022-07-29T11:50:36;101195.56;;;27.64;35.82
39275;BME280;24980;48.874;2.332;2022-07-29T11:53:05;101188.48;;;27.67;35.80
39275;BME280;24980;48.874;2.332;2022-07-29T11:55:32;101183.87;;;27.70;35.78
39275;BME280;24980;48.874;2.332;2022-07-29T11:58:02;101185.33;;;27.72;35.76
39275;BME280;24980;48.874;2.332;2022-07-29T12:00:36;101188.64;;;27.72;35.76
39275;BME280;24980;48.874;2.332;2022-07-29T12:03:06;101198.86;;;27.72;35.76
39275;BME280;24980;48.874;2.332;2022-07-29T12:05:39;101194.34;;;27.73;35.76
39275;BME280;24980;48.874;2.332;2022-07-29T12:08:12;101190.02;;;27.72;35.76
39275;BME280;24980;48.874;2.332;2022-07-29T12:10:35;101187.94;;;27.73;35.76
39275;BME280;24980;48.874;2.332;2022-07-29T12:13:05;101185.23;;;27.75;35.76
39275;BME280;24980;48.874;2.332;2022-07-29T12:15:36;101188.69;;;27.77;35.75
39275;BME280;24980;48.874;2.332;2022-07-29T12:18:13;101183.94;;;27.78;35.75
39275;BME280;24980;48.874;2.332;2022-07-29T12:20:37;101183.77;;;27.78;35.74
39275;BME280;24980;48.874;2.332;2022-07-29T12:23:08;101184.27;;;27.81;35.74
39275;BME280;24980;48.874;2.332;2022-07-29T12:25:39;101180.65;;;27.83;35.73
39275;BME280;24980;48.874;2.332;2022-07-29T12:28:10;101179.02;;;27.85;35.72
39275;BME280;24980;48.874;2.332;2022-07-29T12:30:40;101179.62;;;27.87;35.71
39275;BME280;24980;48.874;2.332;2022-07-29T12:33:13;101181.62;;;27.89;35.70
39275;BME280;24980;48.874;2.332;2022-07-29T12:35:40;101176.71;;;27.90;35.69
39275;BME280;24980;48.874;2.332;2022-07-29T12:38:14;101179.50;;;27.93;35.68
39275;BME280;24980;48.874;2.332;2022-07-29T12:40:41;101177.41;;;27.95;35.66
39275;BME280;24980;48.874;2.332;2022-07-29T12:43:19;101179.54;;;27.98;35.64
39275;BME280;24980;48.874;2.332;2022-07-29T12:45:45;101174.47;;;28.00;35.64
39275;BME280;24980;48.874;2.332;2022-07-29T12:48:12;101180.05;;;28.00;35.64
39275;BME280;24980;48.874;2.332;2022-07-29T12:50:58;101173.98;;;28.00;35.62
39275;BME280;24980;48.874;2.332;2022-07-29T12:53:13;101169.97;;;28.01;35.62
39275;BME280;24980;48.874;2.332;2022-07-29T12:55:48;101170.49;;;28.01;35.62
39275;BME280;24980;48.874;2.332;2022-07-29T12:58:13;101169.03;;;28.01;35.64
39275;BME280;24980;48.874;2.332;2022-07-29T13:00:43;101168.83;;;28.03;35.67
39275;BME280;24980;48.874;2.332;2022-07-29T13:03:13;101174.13;;;28.05;35.67
39275;BME280;24980;48.874;2.332;2022-07-29T13:05:44;101172.95;;;28.07;35.68
39275;BME280;24980;48.874;2.332;2022-07-29T13:08:16;101174.96;;;28.09;35.68
39275;BME280;24980;48.874;2.332;2022-07-29T13:10:44;101175.31;;;28.10;35.69
39275;BME280;24980;48.874;2.332;2022-07-29T13:13:15;101176.49;;;28.11;35.67
39275;BME280;24980;48.874;2.332;2022-07-29T13:15:45;101180.22;;;28.12;35.68
39275;BME280;24980;48.874;2.332;2022-07-29T13:18:32;101180.64;;;28.12;35.67
39275;BME280;24980;48.874;2.332;2022-07-29T13:20:46;101176.12;;;28.12;35.66
39275;BME280;24980;48.874;2.332;2022-07-29T13:23:16;101179.44;;;28.13;35.65